Time;durP1;ratioP1;P1;durP2;ratioP2;P2;SDS_P1;SDS_P2;PMS_P1;PMS_P2;Temp;Humidity;BMP_temperature;BMP_pressure;BME280_temperature;BME280_humidity;BME280_pressure;Samples;Min_cycle;Max_cycle;Signal;HPM_P1;HPM_P2
2023/09/26 03:32:05;;;;;;;4.60;2.72;;;12.70;99.90;;;13.38;65.80;101115.91;4270545;23;20333;-84
2023/09/26 03:34:35;;;;;;;7.28;2.47;;;12.70;99.90;;;13.37;65.63;101112.41;4840447;29;20058;-83
2023/09/26 03:37:03;;;;;;;5.75;2.90;;;12.70;99.90;;;13.38;65.80;101113.25;4808934;29;20123;-84
2023/09/26 03:39:31;;;;;;;4.93;2.70;;;12.70;99.90;;;13.37;65.80;101109.75;4777304;29;20078;-85
2023/09/26 03:41:59;;;;;;;4.35;2.70;;;12.70;99.90;;;13.37;65.99;101104.38;4792331;29;20078;-84
2023/09/26 03:44:26;;;;;;;5.13;2.75;;;12.70;99.90;;;13.36;65.75;101102.72;4791967;29;20130;-84
2023/09/26 03:46:56;;;;;;;6.72;3.17;;;12.70;99.90;;;13.34;65.89;101101.28;4791714;29;20116;-84
2023/09/26 03:49:24;;;;;;;5.47;3.07;;;12.70;99.90;;;13.33;65.86;101108.53;4779533;29;20142;-83
2023/09/26 03:51:53;;;;;;;6.88;2.85;;;12.60;99.90;;;13.33;65.54;101108.53;4794260;29;20059;-83
2023/09/26 03:54:21;;;;;;;5.55;2.65;;;12.60;99.90;;;13.32;65.44;101108.72;4780187;29;20043;-83
2023/09/26 03:56:48;;;;;;;5.15;2.88;;;12.60;99.90;;;13.32;65.25;101103.34;4809340;29;20088;-83
2023/09/26 03:59:16;;;;;;;5.00;2.88;;;12.60;99.90;;;13.30;65.42;101097.41;4779570;29;20055;-83
2023/09/26 04:01:43;;;;;;;7.40;2.78;;;12.60;99.90;;;13.28;65.40;101105.66;4809222;29;20073;-83
2023/09/26 04:04:11;;;;;;;5.93;2.53;;;12.60;99.90;;;13.27;65.42;101098.63;4778768;29;20228;-84
2023/09/26 04:06:38;;;;;;;5.43;2.90;;;12.50;99.90;;;13.26;65.37;101088.97;4808518;29;20133;-83
2023/09/26 04:09:08;;;;;;;4.63;2.53;;;12.50;99.90;;;13.24;65.39;101095.59;4826393;29;20137;-83
2023/09/26 04:11:36;;;;;;;5.68;2.58;;;12.50;99.90;;;13.22;65.56;101090.41;4826353;29;20561;-84
2023/09/26 04:14:04;;;;;;;6.00;2.95;;;12.50;99.90;;;13.22;65.60;101100.31;4840671;29;20038;-84
2023/09/26 04:16:31;;;;;;;6.38;2.58;;;12.50;99.90;;;13.20;65.41;101102.38;4812759;29;20059;-84
2023/09/26 04:19:00;;;;;;;4.85;2.58;;;12.50;99.90;;;13.17;65.46;101098.25;4827994;29;20129;-84
2023/09/26 04:21:27;;;;;;;4.22;2.30;;;12.50;99.90;;;13.16;65.72;101096.59;4826248;29;20073;-84
2023/09/26 04:23:55;;;;;;;5.88;2.90;;;12.50;99.90;;;13.15;65.82;101097.63;4810804;29;20509;-84
2023/09/26 04:26:27;;;;;;;6.90;2.95;;;12.40;99.90;;;13.16;65.47;101099.28;4826868;29;20046;-85
2023/09/26 04:28:54;;;;;;;6.50;2.80;;;12.50;99.90;;;13.15;65.58;101094.97;4810790;29;20114;-84
2023/09/26 04:31:22;;;;;;;5.15;2.80;;;12.50;99.90;;;13.14;65.56;101090.66;4826007;29;20078;-84
2023/09/26 04:33:50;;;;;;;5.00;2.88;;;12.40;99.90;;;13.14;65.66;101094.16;4843549;29;20429;-84
2023/09/26 04:36:18;;;;;;;7.25;2.70;;;12.40;99.90;;;13.14;65.91;101086.09;4842651;29;20073;-84
2023/09/26 04:38:48;;;;;;;5.53;2.80;;;12.40;99.90;;;13.11;65.78;101089.19;4844052;29;20034;-84
2023/09/26 04:41:16;;;;;;;7.17;3.07;;;12.40;99.90;;;13.10;65.72;101087.56;4844882;29;20046;-84
2023/09/26 04:43:45;;;;;;;4.75;2.70;;;12.40;99.90;;;13.09;65.50;101082.44;4828644;29;20283;-84
2023/09/26 04:46:13;;;;;;;4.45;2.45;;;12.40;99.90;;;13.10;65.53;101084.88;4844095;29;20058;-84
2023/09/26 04:48:41;;;;;;;6.72;2.90;;;12.40;99.90;;;13.09;65.60;101079.75;4844097;29;20086;-85
2023/09/26 04:51:10;;;;;;;6.40;3.03;;;12.40;99.90;;;13.07;65.63;101076.44;4827708;29;20068;-83
2023/09/26 04:53:43;;;;;;;5.40;2.83;;;12.40;99.90;;;13.06;65.78;101075.63;4846198;29;20049;-84
2023/09/26 04:56:11;;;;;;;4.70;2.90;;;12.40;99.90;;;13.05;65.78;101075.84;4815536;29;20060;-83
2023/09/26 04:58:38;;;;;;;6.82;3.15;;;12.30;99.90;;;13.01;65.74;101067.41;4829931;29;20050;-83
2023/09/26 05:01:15;;;;;;;7.70;3.10;;;12.30;99.90;;;13.03;65.70;101069.88;4845762;29;20038;-83
2023/09/26 05:03:43;;;;;;;5.80;2.90;;;12.30;99.90;;;13.01;65.53;101075.44;4846656;29;20049;-83
2023/09/26 05:06:11;;;;;;;7.18;3.20;;;12.30;99.90;;;13.03;65.70;101075.22;4846069;29;20068;-83
2023/09/26 05:08:43;;;;;;;5.47;3.00;;;12.30;99.90;;;13.03;65.54;101075.22;4828821;29;20057;-83
2023/09/26 05:11:14;;;;;;;5.45;3.17;;;12.30;99.90;;;13.02;65.88;101070.91;4826124;29;20038;-83
2023/09/26 05:13:44;;;;;;;6.43;3.30;;;12.30;99.90;;;13.01;65.77;101067.41;4826483;29;20414;-87
2023/09/26 05:16:16;;;;;;;6.32;3.22;;;12.30;99.90;;;13.03;65.70;101075.22;4811750;29;20046;-86
2023/09/26 05:18:43;;;;;;;5.28;3.55;;;12.30;99.90;;;13.03;65.81;101072.53;4808874;29;20533;-86
2023/09/26 05:21:12;;;;;;;8.13;3.40;;;12.30;99.90;;;13.03;66.00;101075.22;4793449;29;20171;-88
2023/09/26 05:23:39;;;;;;;8.75;3.70;;;12.30;99.90;;;13.03;66.10;101072.53;4824049;29;20050;-87
2023/09/26 05:26:07;;;;;;;6.55;3.25;;;12.30;99.90;;;13.02;66.31;101068.22;4808935;29;20057;-87
2023/09/26 05:28:35;;;;;;;5.68;3.28;;;12.30;99.90;;;13.01;66.08;101072.75;4814452;29;20107;-87
2023/09/26 05:31:03;;;;;;;5.07;3.10;;;12.30;99.90;;;13.01;66.52;101078.13;4827258;29;20054;-89
2023/09/26 05:33:32;;;;;;;6.63;3.50;;;12.30;99.90;;;13.00;66.36;101081.84;4843202;29;20049;-83
2023/09/26 05:36:00;;;;;;;6.07;3.33;;;12.30;99.90;;;13.01;66.53;101082.66;4844701;29;20064;-84
2023/09/26 05:38:28;;;;;;;6.68;3.50;;;12.30;99.90;;;13.01;66.43;101079.97;4826735;29;20053;-84
2023/09/26 05:40:56;;;;;;;7.13;3.42;;;12.30;99.90;;;13.02;66.19;101085.13;4832562;29;20054;-84
2023/09/26 05:43:23;;;;;;;6.45;3.42;;;12.30;99.90;;;13.01;66.25;101077.31;4814058;29;20139;-84
2023/09/26 05:45:52;;;;;;;4.82;3.10;;;12.40;99.90;;;13.03;66.75;101085.94;4829296;29;20596;-84
2023/09/26 05:48:21;;;;;;;7.35;3.50;;;12.30;99.90;;;13.02;66.98;101087.78;4843367;29;20073;-85
2023/09/26 05:50:58;;;;;;;6.55;3.08;;;12.40;99.90;;;13.03;66.94;101091.28;4845194;29;20149;-84
2023/09/26 05:53:25;;;;;;;6.55;3.60;;;12.40;99.90;;;13.02;67.05;101089.66;4843312;29;20054;-84
2023/09/26 05:55:52;;;;;;;6.82;3.50;;;12.40;99.90;;;13.03;67.30;101100.16;4823851;29;20047;-84
2023/09/26 05:58:20;;;;;;;6.28;3.85;;;12.40;99.90;;;13.06;67.36;101093.56;4839676;29;20049;-84
2023/09/26 06:00:48;;;;;;;6.30;3.55;;;12.50;99.90;;;13.09;67.40;101093.13;4827778;29;20052;-84
2023/09/26 06:03:16;;;;;;;5.38;3.40;;;12.50;99.90;;;13.10;67.56;101089.44;4828547;29;20052;-85
2023/09/26 06:05:45;;;;;;;8.45;3.50;;;12.50;99.90;;;13.12;67.69;101082.00;4842007;29;20045;-84
2023/09/26 06:08:14;;;;;;;8.05;3.80;;;12.50;99.90;;;13.14;67.56;101091.47;4842582;29;20081;-84
2023/09/26 06:10:42;;;;;;;5.78;3.40;;;12.70;99.90;;;13.16;67.73;101091.25;4811396;29;20045;-84
2023/09/26 06:13:09;;;;;;;6.93;3.58;;;12.60;99.90;;;13.19;68.02;101090.81;4799783;29;20419;-85
2023/09/26 06:15:41;;;;;;;7.05;3.42;;;12.60;99.90;;;13.20;68.06;101087.09;4792967;29;20079;-85
2023/09/26 06:18:08;;;;;;;6.50;3.63;;;12.60;99.90;;;13.20;68.35;101084.44;4824584;29;20110;-84
2023/09/26 06:20:38;;;;;;;5.68;3.85;;;12.60;99.90;;;13.22;68.32;101085.06;4826890;29;20060;-84
2023/09/26 06:23:06;;;;;;;6.03;3.65;;;12.70;99.90;;;13.25;68.57;101079.28;4823801;29;20053;-84
2023/09/26 06:25:35;;;;;;;6.10;4.18;;;12.70;99.90;;;13.30;68.75;101075.97;4842192;29;20087;-84
2023/09/26 06:28:02;;;;;;;8.20;4.07;;;12.70;99.90;;;13.33;68.79;101079.03;4841234;29;20125;-84
2023/09/26 06:30:30;;;;;;;6.93;4.30;;;12.80;99.90;;;13.36;68.87;101086.63;4845491;29;20053;-84
2023/09/26 06:32:58;;;;;;;6.72;4.38;;;12.80;99.90;;;13.38;69.14;101073.88;4841778;29;20048;-85
2023/09/26 06:35:26;;;;;;;9.68;4.57;;;12.90;99.90;;;13.44;69.24;101082.06;4825871;29;20046;-85
2023/09/26 06:37:53;;;;;;;8.88;4.47;;;12.90;99.90;;;13.47;69.81;101076.28;4826446;29;20046;-84
2023/09/26 06:40:23;;;;;;;6.30;4.20;;;12.90;99.90;;;13.50;69.65;101078.53;4827985;29;20073;-85
2023/09/26 06:42:52;;;;;;;8.05;4.00;;;13.00;99.90;;;13.54;69.83;101066.34;4842776;29;20113;-85
2023/09/26 06:45:20;;;;;;;9.45;4.32;;;13.00;99.90;;;13.59;69.83;101059.31;4842468;29;20565;-85
2023/09/26 06:47:48;;;;;;;7.93;4.82;;;13.10;99.90;;;13.65;70.17;101066.47;4825973;29;20062;-84
2023/09/26 06:50:16;;;;;;;8.27;5.30;;;13.10;99.90;;;13.69;70.48;101074.91;4842950;29;20094;-85
2023/09/26 06:52:43;;;;;;;10.75;5.30;;;13.20;99.90;;;13.74;70.58;101074.25;4817777;29;20057;-84
2023/09/26 06:55:11;;;;;;;10.25;5.50;;;13.30;99.90;;;13.82;70.13;101074.00;4811181;29;20065;-85
2023/09/26 06:57:39;;;;;;;12.52;5.45;;;13.40;99.90;;;13.86;70.37;101065.31;4811006;29;20102;-84
2023/09/26 07:00:16;;;;;;;8.98;4.88;;;13.40;99.90;;;13.90;70.43;101066.47;4845886;29;20509;-84
2023/09/26 07:02:43;;;;;;;12.93;5.22;;;13.50;99.90;;;13.98;70.50;101067.28;4821068;29;20046;-83
2023/09/26 07:05:11;;;;;;;16.40;6.47;;;13.60;99.90;;;14.04;70.14;101069.88;4836564;29;20125;-84
2023/09/26 07:07:39;;;;;;;9.00;4.97;;;13.70;99.90;;;14.07;70.36;101066.78;4803225;29;20050;-84
2023/09/26 07:10:10;;;;;;;10.80;4.90;;;13.70;99.90;;;14.15;70.10;101068.34;4829003;29;20050;-84
2023/09/26 07:12:38;;;;;;;10.93;5.50;;;13.80;99.90;;;14.23;70.09;101065.41;4834055;29;20064;-84
2023/09/26 07:15:09;;;;;;;9.38;5.15;;;13.90;99.90;;;14.28;70.32;101073.59;4829653;29;20046;-84
2023/09/26 07:17:38;;;;;;;8.75;5.40;;;14.00;99.90;;;14.36;69.91;101069.81;4814244;29;20057;-84
2023/09/26 07:20:13;;;;;;;14.43;6.00;;;14.10;99.90;;;14.38;70.95;101067.72;4829261;29;20076;-84
2023/09/26 07:22:40;;;;;;;7.63;5.40;;;14.10;99.90;;;14.42;71.47;101063.56;4837198;29;20054;-84
2023/09/26 07:25:10;;;;;;;11.18;5.30;;;14.20;99.90;;;14.48;70.73;101062.69;4829143;29;20497;-87
2023/09/26 07:27:40;;;;;;;8.40;5.10;;;14.30;99.90;;;14.58;70.73;101067.56;4830113;29;20471;-84
2023/09/26 07:30:10;;;;;;;9.67;4.60;;;14.40;99.90;;;14.68;70.62;101067.84;4844717;29;20061;-84
2023/09/26 07:32:39;;;;;;;14.65;4.93;;;14.50;99.90;;;14.78;70.26;101061.97;4800744;29;20072;-84
2023/09/26 07:35:08;;;;;;;13.13;5.53;;;14.60;99.90;;;14.87;70.57;101072.19;4828592;29;20043;-84
2023/09/26 07:37:35;;;;;;;8.10;5.05;;;14.80;99.90;;;14.99;70.45;101074.13;4813194;29;20050;-84
2023/09/26 07:40:05;;;;;;;8.55;4.95;;;14.90;99.90;;;15.09;69.98;101077.09;4829927;29;20392;-84
2023/09/26 07:42:35;;;;;;;11.23;4.88;;;15.00;99.90;;;15.21;70.69;101072.59;4830871;29;20050;-84
2023/09/26 07:45:03;;;;;;;13.15;5.00;;;15.20;99.90;;;15.32;70.51;101071.81;4823580;29;20046;-84
2023/09/26 07:47:30;;;;;;;11.68;5.03;;;15.30;99.90;;;15.41;70.27;101075.00;4846710;29;20046;-84
2023/09/26 07:50:01;;;;;;;11.70;4.60;;;15.40;99.90;;;15.51;70.94;101072.59;4846916;29;20100;-84
2023/09/26 07:52:29;;;;;;;17.27;5.30;;;15.50;99.90;;;15.60;70.85;101070.41;4810011;29;20058;-84
2023/09/26 07:54:57;;;;;;;9.40;5.00;;;15.60;99.90;;;15.68;70.94;101064.72;4811442;29;20053;-84
2023/09/26 07:57:26;;;;;;;8.65;4.50;;;15.80;99.90;;;15.78;71.29;101064.97;4832987;29;20045;-84
2023/09/26 07:59:53;;;;;;;10.90;4.97;;;15.90;99.90;;;15.89;71.26;101066.88;4829351;29;20528;-86
2023/09/26 08:02:21;;;;;;;10.90;4.78;;;16.00;99.90;;;15.94;70.45;101066.19;4831272;29;20102;-86
2023/09/26 08:04:48;;;;;;;12.77;4.68;;;16.10;99.90;;;16.03;70.02;101074.72;4828411;29;20045;-87
2023/09/26 08:07:17;;;;;;;8.25;4.60;;;16.10;99.90;;;16.15;70.51;101073.69;4844627;29;20053;-87
2023/09/26 08:09:45;;;;;;;10.90;4.55;;;16.30;99.90;;;16.29;71.84;101076.97;4844476;29;20045;-87
2023/09/26 08:12:12;;;;;;;7.45;3.90;;;16.40;99.90;;;16.40;69.39;101070.78;4847443;29;20157;-87
2023/09/26 08:14:40;;;;;;;7.57;3.80;;;16.50;99.90;;;16.57;71.89;101075.44;4828547;29;20073;-87
2023/09/26 08:17:07;;;;;;;6.18;3.88;;;16.70;99.90;;;16.66;72.09;101069.44;4844539;29;20061;-87
2023/09/26 08:19:36;;;;;;;5.68;2.97;;;16.90;99.90;;;16.77;68.49;101065.13;4844573;29;20054;-87
2023/09/26 08:22:03;;;;;;;6.28;3.03;;;17.00;99.90;;;16.90;67.87;101064.06;4833835;29;20046;-87
2023/09/26 08:24:33;;;;;;;7.60;3.13;;;17.10;99.90;;;16.97;65.49;101065.53;4843186;29;20137;-87
2023/09/26 08:27:00;;;;;;;10.15;2.88;;;17.20;99.90;;;17.09;67.69;101067.41;4844654;29;20132;-84
2023/09/26 08:29:28;;;;;;;7.05;3.40;;;17.30;99.90;;;17.16;67.65;101065.38;4814599;29;20517;-84
2023/09/26 08:31:55;;;;;;;5.50;3.25;;;17.40;99.90;;;17.20;67.97;101061.94;4847340;29;20050;-84
2023/09/26 08:34:24;;;;;;;5.40;2.90;;;17.50;99.90;;;17.28;66.94;101070.72;4829987;29;20060;-83
2023/09/26 08:36:52;;;;;;;7.65;3.65;;;17.50;99.90;;;17.34;66.44;101065.19;4846338;29;20053;-84
2023/09/26 08:39:20;;;;;;;6.40;2.92;;;17.60;99.90;;;17.39;64.41;101072.56;4844723;29;20038;-84
2023/09/26 08:41:51;;;;;;;6.65;2.85;;;17.60;99.90;;;17.45;65.04;101071.56;4835429;29;20114;-84
2023/09/26 08:44:19;;;;;;;6.20;2.72;;;17.70;99.90;;;17.50;66.77;101067.09;4782116;29;20062;-84
2023/09/26 08:46:47;;;;;;;8.90;3.15;;;17.70;99.90;;;17.58;66.66;101067.78;4797382;29;20554;-84
2023/09/26 08:49:15;;;;;;;9.52;2.90;;;17.80;99.90;;;17.62;65.79;101055.44;4826356;29;20430;-84
2023/09/26 08:51:42;;;;;;;8.57;2.60;;;17.80;99.90;;;17.68;64.87;101063.38;4829784;29;20170;-84
2023/09/26 08:54:10;;;;;;;5.78;2.47;;;17.90;99.90;;;17.72;64.03;101058.31;4783292;29;20064;-84
2023/09/26 08:56:37;;;;;;;6.40;2.80;;;18.00;99.90;;;17.80;63.04;101057.91;4829382;29;20049;-84
2023/09/26 08:59:07;;;;;;;6.53;2.60;;;18.00;99.90;;;17.85;60.71;101054.47;4829150;29;20042;-84
2023/09/26 09:01:35;;;;;;;6.32;2.88;;;18.10;99.90;;;17.91;61.67;101048.94;4844848;29;20061;-84
2023/09/26 09:04:03;;;;;;;7.25;2.60;;;18.10;99.90;;;17.97;60.30;101052.53;4842791;29;20053;-84
2023/09/26 09:06:31;;;;;;;7.18;2.92;;;18.20;99.90;;;17.98;59.88;101046.88;4843294;29;20498;-84
2023/09/26 09:09:10;;;;;;;6.28;2.85;;;18.20;99.90;;;18.00;60.59;101044.75;4847602;29;20049;-84
2023/09/26 09:11:39;;;;;;;7.57;2.60;;;18.20;99.90;;;18.09;60.21;101044.34;4853566;29;20506;-84
2023/09/26 09:14:33;;;;;;;6.28;2.83;;;18.30;99.90;;;18.09;59.45;101044.34;4826966;29;20051;-84
2023/09/26 09:17:00;;;;;;;5.47;2.72;;;18.30;99.90;;;18.09;59.63;101044.34;4810518;29;20082;-84
2023/09/26 09:19:46;;;;;;;6.25;2.63;;;18.30;99.90;;;18.25;62.58;101038.09;4827153;29;20510;-84
2023/09/26 09:22:19;;;;;;;4.85;2.33;;;18.50;99.90;;;18.25;59.71;101030.00;4842488;29;20052;-84
2023/09/26 09:24:55;;;;;;;6.63;2.90;;;18.50;99.90;;;18.24;58.41;101020.25;4834072;29;20054;-84
2023/09/26 09:27:31;;;;;;;7.13;2.65;;;18.50;99.90;;;18.30;59.83;101022.00;4828935;29;20054;-84
2023/09/26 09:30:09;;;;;;;6.53;2.70;;;18.50;99.90;;;18.28;59.65;101022.22;4828722;29;20053;-84
2023/09/26 09:32:37;;;;;;;7.55;2.90;;;18.50;99.90;;;18.34;60.56;101023.09;4845189;29;20057;-84
2023/09/26 09:35:08;;;;;;;6.45;2.83;;;18.60;99.90;;;18.46;60.61;101018.41;4844020;29;20053;-85
2023/09/26 09:37:36;;;;;;;4.68;2.35;;;18.60;99.90;;;18.57;58.73;101019.38;4844204;29;20057;-84
2023/09/26 09:40:04;;;;;;;8.65;2.65;;;18.70;99.90;;;18.57;60.13;101021.25;4811274;29;20116;-84
2023/09/26 09:42:32;;;;;;;8.20;2.50;;;18.80;99.90;;;18.64;57.44;101011.06;4830245;29;20082;-84
2023/09/26 09:45:00;;;;;;;6.18;2.30;;;18.90;99.90;;;18.61;58.90;101008.88;4838267;29;20061;-84
2023/09/26 09:47:31;;;;;;;6.78;2.45;;;18.80;99.90;;;18.60;58.59;101007.25;4806550;29;20422;-84
2023/09/26 09:50:02;;;;;;;6.88;2.33;;;18.90;99.90;;;18.63;57.91;101002.13;4838708;29;20129;-84
2023/09/26 09:52:34;;;;;;;4.97;2.58;;;18.90;99.90;;;18.65;58.05;101002.72;4829517;29;20081;-84
2023/09/26 09:55:05;;;;;;;4.90;2.45;;;18.90;99.90;;;18.62;57.34;101003.22;4837610;29;20050;-84
2023/09/26 09:57:35;;;;;;;6.13;2.40;;;18.90;99.90;;;18.65;58.04;100999.22;4810140;29;20066;-84
2023/09/26 10:00:05;;;;;;;5.57;2.30;;;18.80;99.90;;;18.79;55.30;100995.09;4839272;29;20514;-84
2023/09/26 10:02:37;;;;;;;5.53;2.25;;;19.00;99.90;;;18.83;56.82;100995.38;4838682;29;20293;-84
2023/09/26 10:05:07;;;;;;;5.70;2.40;;;19.00;99.90;;;18.81;55.90;100992.94;4837757;29;20058;-84
2023/09/26 10:07:36;;;;;;;7.65;2.30;;;19.10;99.90;;;18.85;55.61;100996.78;4821105;29;20414;-84
2023/09/26 10:10:09;;;;;;;12.48;2.20;;;19.10;99.90;;;18.96;55.77;100995.81;4820622;29;20471;-84
2023/09/26 10:12:38;;;;;;;6.75;2.33;;;19.10;99.90;;;19.06;54.20;100994.28;4832452;29;20047;-84
2023/09/26 10:15:11;;;;;;;4.97;2.10;;;19.20;99.90;;;19.07;54.60;100994.00;4837839;29;20038;-84
2023/09/26 10:17:42;;;;;;;4.55;2.25;;;19.30;99.90;;;19.03;54.48;100985.63;4837353;29;20107;-84
2023/09/26 10:20:12;;;;;;;7.05;2.22;;;19.30;99.70;;;19.10;55.55;100985.41;4819750;29;20503;-84
2023/09/26 10:22:43;;;;;;;6.78;2.55;;;19.30;99.90;;;19.15;56.23;100988.16;4839027;29;20051;-84
2023/09/26 10:25:18;;;;;;;7.70;2.35;;;19.40;99.90;;;19.20;54.63;100990.09;4805455;29;20057;-84
2023/09/26 10:27:47;;;;;;;4.18;2.03;;;19.50;99.80;;;19.21;53.03;100986.31;4832827;29;20530;-83
2023/09/26 10:30:16;;;;;;;6.30;2.15;;;19.40;98.10;;;19.28;53.60;100970.72;4840441;29;20067;-84
2023/09/26 10:32:46;;;;;;;5.03;2.42;;;19.50;98.40;;;19.30;54.48;100974.78;4843641;29;20590;-84
2023/09/26 10:35:30;;;;;;;10.25;2.47;;;19.60;99.50;;;19.27;53.96;100969.06;4841951;29;20046;-84
2023/09/26 10:38:18;;;;;;;5.65;2.30;;;19.50;98.70;;;19.22;54.03;100972.53;4825524;29;20114;-83
2023/09/26 10:40:49;;;;;;;6.07;2.97;;;19.50;98.60;;;19.29;54.76;100973.16;4849217;29;20081;-83
2023/09/26 10:43:17;;;;;;;7.25;2.95;;;19.50;99.40;;;19.30;53.50;100971.25;4846882;29;20049;-83
2023/09/26 10:45:45;;;;;;;6.28;2.55;;;19.50;98.30;;;19.37;52.86;100979.97;4842099;29;20525;-84
2023/09/26 10:48:20;;;;;;;7.75;2.08;;;19.60;97.00;;;19.40;53.37;100967.84;4839585;29;20057;-85
2023/09/26 10:50:48;;;;;;;5.18;1.85;;;19.60;97.60;;;19.47;52.08;100971.13;4799054;29;20577;-84
2023/09/26 10:53:16;;;;;;;6.07;2.30;;;19.70;96.30;;;19.46;52.76;100977.63;4817917;29;20070;-84
2023/09/26 10:55:44;;;;;;;8.02;2.65;;;19.80;96.90;;;19.53;53.18;100962.00;4835963;29;20480;-84
2023/09/26 10:58:20;;;;;;;8.50;2.45;;;19.80;97.70;;;19.48;53.34;100964.66;4839564;29;20057;-83
2023/09/26 11:00:52;;;;;;;7.20;2.20;;;19.80;97.70;;;19.50;53.24;100963.31;4847053;29;20084;-83
2023/09/26 11:03:21;;;;;;;5.85;2.15;;;19.80;97.70;;;19.47;52.66;100952.19;4836718;29;20138;-83
2023/09/26 11:05:50;;;;;;;6.35;2.45;;;19.70;96.60;;;19.44;51.60;100958.94;4823590;29;20506;-83
2023/09/26 11:08:18;;;;;;;3.75;2.10;;;19.70;95.20;;;19.49;53.14;100969.00;4843101;29;20057;-83
2023/09/26 11:10:46;;;;;;;6.00;2.28;;;19.80;97.00;;;19.49;53.46;100961.69;4848077;29;20046;-84
2023/09/26 11:13:15;;;;;;;5.72;2.15;;;19.80;97.30;;;19.58;52.28;100963.94;4829363;29;20041;-84
2023/09/26 11:15:45;;;;;;;4.68;2.38;;;19.90;96.30;;;19.71;53.43;100972.44;4840544;29;20102;-85
2023/09/26 11:18:13;;;;;;;4.88;1.80;;;20.00;97.50;;;19.88;50.87;100963.34;4804185;29;20058;-85
2023/09/26 11:20:44;;;;;;;3.58;1.70;;;20.20;94.40;;;19.91;50.10;100958.25;4842538;29;20654;-84
2023/09/26 11:23:12;;;;;;;4.50;1.83;;;20.20;93.50;;;19.91;50.46;100965.53;4842010;29;20459;-86
2023/09/26 11:25:51;;;;;;;6.90;2.47;;;20.20;93.90;;;19.87;50.06;100961.72;4826023;29;20129;-84
2023/09/26 11:28:19;;;;;;;4.55;1.67;;;20.20;93.20;;;19.88;50.21;100961.47;4835933;29;20054;-84
2023/09/26 11:30:49;;;;;;;6.68;1.90;;;20.20;93.50;;;19.95;51.21;100970.16;4845388;29;20049;-84
2023/09/26 11:33:17;;;;;;;4.90;2.08;;;20.20;94.70;;;19.89;49.92;100962.28;4845815;29;20060;-84
2023/09/26 11:35:46;;;;;;;3.92;1.73;;;20.20;92.30;;;19.93;49.91;100964.19;4811942;29;20502;-84
2023/09/26 11:38:15;;;;;;;4.15;1.80;;;20.20;92.60;;;19.89;48.59;100957.66;4838123;29;20208;-84
2023/09/26 11:40:43;;;;;;;3.63;1.98;;;20.20;91.30;;;19.85;50.30;100948.44;4845640;29;20054;-84
2023/09/26 11:43:10;;;;;;;4.53;2.25;;;20.10;92.80;;;19.82;50.99;100948.97;4841749;29;20054;-84
2023/09/26 11:45:38;;;;;;;4.30;2.00;;;20.10;94.00;;;19.94;49.77;100940.66;4807926;29;20058;-84
2023/09/26 11:48:07;;;;;;;3.85;1.85;;;20.10;92.60;;;19.92;49.97;100935.50;4837503;29;20054;-84
2023/09/26 11:50:39;;;;;;;5.65;1.80;;;20.20;93.00;;;19.87;49.97;100929.25;4827113;29;20100;-85
2023/09/26 11:53:13;;;;;;;4.55;2.00;;;20.10;92.40;;;19.88;50.96;100926.28;4840058;29;20054;-84
2023/09/26 11:55:50;;;;;;;3.35;1.70;;;20.10;93.70;;;19.92;50.18;100934.69;4823172;29;20058;-84
2023/09/26 11:58:19;;;;;;;5.03;1.85;;;20.20;93.00;;;19.86;48.36;100933.00;4780610;29;20081;-84
2023/09/26 12:00:47;;;;;;;4.10;1.77;;;20.10;90.50;;;19.80;47.76;100935.69;4843684;29;20433;-84
2023/09/26 12:03:17;;;;;;;4.07;1.90;;;20.00;89.70;;;19.75;47.66;100932.94;4845674;29;20102;-84
2023/09/26 12:05:45;;;;;;;3.67;1.65;;;20.00;89.70;;;19.74;48.75;100935.91;4826024;29;20045;-84
2023/09/26 12:08:14;;;;;;;4.45;1.88;;;19.90;90.90;;;19.74;48.80;100930.50;4811891;29;20495;-85
2023/09/26 12:10:43;;;;;;;6.43;2.10;;;19.90;90.80;;;19.79;50.10;100936.75;4841974;29;20082;-84
2023/09/26 12:13:11;;;;;;;4.93;2.22;;;20.00;92.70;;;19.89;50.56;100925.19;4830460;29;20470;-84
2023/09/26 12:15:42;;;;;;;6.00;2.08;;;20.10;93.60;;;19.88;50.03;100920.84;4812985;29;20129;-84
2023/09/26 12:18:10;;;;;;;5.65;2.00;;;20.10;92.60;;;19.84;50.05;100925.16;4812652;29;20054;-84
2023/09/26 12:20:37;;;;;;;4.78;2.20;;;20.10;92.30;;;19.81;50.19;100936.50;4829559;29;20041;-84
2023/09/26 12:23:08;;;;;;;4.72;1.85;;;20.00;92.60;;;19.85;50.71;100926.78;4814390;29;20049;-84
2023/09/26 12:25:37;;;;;;;5.00;1.65;;;20.10;93.60;;;19.91;48.33;100925.75;4817610;29;20510;-84
2023/09/26 12:28:05;;;;;;;4.18;1.65;;;20.10;90.30;;;19.93;47.58;100922.78;4819740;29;20400;-84
2023/09/26 12:30:33;;;;;;;5.20;1.88;;;20.20;89.40;;;19.95;48.37;100931.44;4825712;29;20053;-84
2023/09/26 12:33:01;;;;;;;10.05;1.83;;;20.20;90.50;;;19.96;48.38;100927.66;4813914;29;20053;-84
2023/09/26 12:35:28;;;;;;;5.40;1.67;;;20.20;90.60;;;19.98;49.31;100929.03;4837373;29;20051;-84
2023/09/26 12:37:56;;;;;;;6.47;1.90;;;20.20;91.50;;;20.01;50.41;100925.00;4843230;29;20440;-84
2023/09/26 12:40:24;;;;;;;4.60;1.88;;;20.30;92.60;;;20.10;51.29;100925.28;4841205;29;20049;-84
2023/09/26 12:42:53;;;;;;;4.82;1.83;;;20.30;94.10;;;20.20;49.85;100925.34;4826383;29;20525;-84
2023/09/26 12:45:21;;;;;;;4.30;1.85;;;20.30;92.20;;;20.16;49.10;100926.97;4820434;29;20054;-84
2023/09/26 12:47:49;;;;;;;4.75;1.80;;;20.40;90.90;;;20.18;49.97;100930.22;4840049;29;20046;-84
2023/09/26 12:50:17;;;;;;;4.63;1.80;;;20.40;92.00;;;20.18;51.25;100924.78;4810038;29;20050;-84
2023/09/26 12:52:45;;;;;;;4.05;1.70;;;20.40;93.30;;;20.21;50.79;100929.69;4844538;29;20041;-84
2023/09/26 12:55:13;;;;;;;5.28;2.08;;;20.40;93.00;;;20.25;49.92;100925.34;4841996;29;20054;-85
2023/09/26 13:03:00;;;;;;;7.65;2.17;;;20.50;91.90;;;20.21;49.80;100919.69;4854464;29;20443;-83
2023/09/26 13:05:28;;;;;;;4.93;2.10;;;20.40;91.80;;;20.18;49.36;100916.66;4855595;29;20057;-84
2023/09/26 13:07:55;;;;;;;4.25;2.15;;;20.40;91.50;;;20.19;49.88;100912.88;4848572;29;20073;-84
2023/09/26 13:10:23;;;;;;;3.67;1.80;;;20.40;91.60;;;20.16;49.37;100908.81;4860998;29;20085;-84
2023/09/26 13:12:50;;;;;;;3.90;2.00;;;20.40;91.20;;;20.12;49.40;100909.59;4860478;29;20045;-84
2023/09/26 13:15:18;;;;;;;4.63;2.05;;;20.40;91.00;;;20.11;49.26;100897.97;4850207;29;20512;-84
2023/09/26 13:17:47;;;;;;;6.13;2.30;;;20.40;91.00;;;20.13;50.41;100901.22;4835649;29;20034;-84
2023/09/26 13:20:16;;;;;;;5.78;2.20;;;20.40;92.70;;;20.21;51.09;100908.03;4862548;29;20072;-84
2023/09/26 13:22:43;;;;;;;5.80;2.05;;;20.40;93.40;;;20.21;51.79;100902.63;4860012;29;20528;-84
2023/09/26 13:25:11;;;;;;;4.38;2.03;;;20.40;94.00;;;20.21;51.77;100908.03;4863196;29;20124;-84
2023/09/26 13:27:38;;;;;;;5.30;2.40;;;20.40;94.20;;;20.24;50.11;100904.78;4876770;29;20117;-84
2023/09/26 13:30:08;;;;;;;5.85;2.38;;;20.40;92.80;;;20.23;50.58;100906.66;4866830;29;20046;-84
2023/09/26 13:32:36;;;;;;;5.10;2.30;;;20.40;93.00;;;20.20;51.18;100906.38;4844040;29;20045;-84
2023/09/26 13:35:05;;;;;;;4.50;2.10;;;20.40;93.80;;;20.19;52.99;100910.97;4852694;29;20046;-84
2023/09/26 13:37:37;;;;;;;4.40;2.10;;;20.40;95.70;;;20.22;53.28;100898.81;4867437;29;20045;-84
2023/09/26 13:40:07;;;;;;;4.45;2.08;;;20.50;96.00;;;20.19;51.53;100912.88;4848087;29;20486;-83
2023/09/26 13:42:37;;;;;;;5.38;2.50;;;20.40;94.20;;;20.16;52.02;100905.31;4843529;29;20049;-86
2023/09/26 13:45:06;;;;;;;4.57;2.00;;;20.40;94.80;;;20.17;51.90;100902.31;4865620;29;20049;-83
2023/09/26 13:47:34;;;;;;;4.15;2.10;;;20.40;94.20;;;20.22;53.23;100912.34;4863191;29;20060;-83
2023/09/26 13:50:01;;;;;;;5.45;2.30;;;20.40;96.10;;;20.24;54.45;100908.28;4849109;29;20089;-84
2023/09/26 13:52:30;;;;;;;3.70;2.10;;;20.50;97.50;;;20.26;51.35;100910.75;4861543;29;20469;-84
2023/09/26 13:54:59;;;;;;;6.22;2.33;;;20.50;94.30;;;20.26;52.24;100910.75;4866156;29;20433;-84
2023/09/26 13:57:26;;;;;;;7.60;2.60;;;20.50;94.80;;;20.23;51.14;100903.97;4842152;29;20572;-84